sensor_id;sensor_type;location;lat;lon;timestamp;P1;durP1;ratioP1;P2;durP2;ratioP2
67776;SDS011;54576;52.020;5.536;2023-02-28T00:00:23;4.05;;;3.65;;
67776;SDS011;54576;52.020;5.536;2023-02-28T00:02:49;14.05;;;4.38;;
67776;SDS011;54576;52.020;5.536;2023-02-28T00:05:19;11.13;;;3.58;;
67776;SDS011;54576;52.020;5.536;2023-02-28T00:07:47;11.90;;;4.43;;
67776;SDS011;54576;52.020;5.536;2023-02-28T00:10:15;7.60;;;3.22;;
67776;SDS011;54576;52.020;5.536;2023-02-28T00:12:45;6.40;;;3.60;;
67776;SDS011;54576;52.020;5.536;2023-02-28T00:15:15;4.65;;;3.47;;
67776;SDS011;54576;52.020;5.536;2023-02-28T00:17:41;6.47;;;3.65;;
67776;SDS011;54576;52.020;5.536;2023-02-28T00:20:07;5.72;;;3.67;;
67776;SDS011;54576;52.020;5.536;2023-02-28T00:22:35;6.13;;;3.85;;
67776;SDS011;54576;52.020;5.536;2023-02-28T00:25:02;4.22;;;3.55;;
67776;SDS011;54576;52.020;5.536;2023-02-28T00:27:28;8.05;;;3.78;;
67776;SDS011;54576;52.020;5.536;2023-02-28T00:29:54;14.40;;;4.53;;
67776;SDS011;54576;52.020;5.536;2023-02-28T00:32:20;9.90;;;4.65;;
67776;SDS011;54576;52.020;5.536;2023-02-28T00:34:45;11.90;;;5.18;;
67776;SDS011;54576;52.020;5.536;2023-02-28T00:37:11;8.38;;;4.07;;
67776;SDS011;54576;52.020;5.536;2023-02-28T00:39:37;6.53;;;3.72;;
67776;SDS011;54576;52.020;5.536;2023-02-28T00:42:04;6.28;;;3.63;;
67776;SDS011;54576;52.020;5.536;2023-02-28T00:44:31;12.88;;;3.75;;
67776;SDS011;54576;52.020;5.536;2023-02-28T00:46:57;14.70;;;3.22;;
67776;SDS011;54576;52.020;5.536;2023-02-28T00:49:24;6.20;;;3.28;;
67776;SDS011;54576;52.020;5.536;2023-02-28T00:51:51;7.25;;;3.45;;
67776;SDS011;54576;52.020;5.536;2023-02-28T00:54:17;4.85;;;3.45;;
67776;SDS011;54576;52.020;5.536;2023-02-28T00:56:45;4.40;;;3.30;;
67776;SDS011;54576;52.020;5.536;2023-02-28T00:59:11;6.25;;;3.20;;
67776;SDS011;54576;52.020;5.536;2023-02-28T01:01:37;6.32;;;3.58;;
67776;SDS011;54576;52.020;5.536;2023-02-28T01:04:03;4.93;;;3.28;;
67776;SDS011;54576;52.020;5.536;2023-02-28T01:06:29;3.97;;;3.22;;
67776;SDS011;54576;52.020;5.536;2023-02-28T01:08:56;3.90;;;3.53;;
67776;SDS011;54576;52.020;5.536;2023-02-28T01:11:22;7.10;;;3.67;;
67776;SDS011;54576;52.020;5.536;2023-02-28T01:13:47;5.78;;;3.33;;
67776;SDS011;54576;52.020;5.536;2023-02-28T01:16:14;10.10;;;3.38;;
67776;SDS011;54576;52.020;5.536;2023-02-28T01:18:40;6.00;;;3.67;;
67776;SDS011;54576;52.020;5.536;2023-02-28T01:21:07;4.00;;;3.00;;
67776;SDS011;54576;52.020;5.536;2023-02-28T01:23:34;12.50;;;4.03;;
67776;SDS011;54576;52.020;5.536;2023-02-28T01:26:07;9.98;;;5.03;;
67776;SDS011;54576;52.020;5.536;2023-02-28T01:28:36;14.02;;;8.02;;
67776;SDS011;54576;52.020;5.536;2023-02-28T01:31:03;10.82;;;6.10;;
67776;SDS011;54576;52.020;5.536;2023-02-28T01:33:29;8.98;;;4.22;;
67776;SDS011;54576;52.020;5.536;2023-02-28T01:36:02;8.05;;;3.58;;
67776;SDS011;54576;52.020;5.536;2023-02-28T01:38:29;5.15;;;3.58;;
67776;SDS011;54576;52.020;5.536;2023-02-28T01:40:57;7.05;;;3.03;;
67776;SDS011;54576;52.020;5.536;2023-02-28T01:43:26;11.43;;;3.88;;
67776;SDS011;54576;52.020;5.536;2023-02-28T01:45:55;8.02;;;3.33;;
67776;SDS011;54576;52.020;5.536;2023-02-28T01:48:24;3.55;;;2.90;;
67776;SDS011;54576;52.020;5.536;2023-02-28T01:50:58;5.38;;;3.15;;
67776;SDS011;54576;52.020;5.536;2023-02-28T01:54:11;7.78;;;3.38;;
67776;SDS011;54576;52.020;5.536;2023-02-28T01:56:20;4.47;;;3.08;;
67776;SDS011;54576;52.020;5.536;2023-02-28T01:58:51;3.63;;;2.83;;
67776;SDS011;54576;52.020;5.536;2023-02-28T02:01:18;6.53;;;3.28;;
67776;SDS011;54576;52.020;5.536;2023-02-28T02:03:48;3.63;;;3.15;;
67776;SDS011;54576;52.020;5.536;2023-02-28T02:06:23;8.90;;;3.30;;
67776;SDS011;54576;52.020;5.536;2023-02-28T02:08:52;8.80;;;3.42;;
67776;SDS011;54576;52.020;5.536;2023-02-28T02:11:19;5.82;;;3.38;;
67776;SDS011;54576;52.020;5.536;2023-02-28T02:14:00;7.85;;;3.60;;
67776;SDS011;54576;52.020;5.536;2023-02-28T02:27:59;5.95;;;3.30;;
67776;SDS011;54576;52.020;5.536;2023-02-28T02:30:55;7.97;;;3.28;;
67776;SDS011;54576;52.020;5.536;2023-02-28T02:33:28;5.78;;;3.47;;
67776;SDS011;54576;52.020;5.536;2023-02-28T02:36:07;3.50;;;3.10;;
67776;SDS011;54576;52.020;5.536;2023-02-28T02:39:05;9.48;;;3.75;;
67776;SDS011;54576;52.020;5.536;2023-02-28T02:42:00;8.43;;;3.55;;
67776;SDS011;54576;52.020;5.536;2023-02-28T02:44:31;5.45;;;3.28;;
67776;SDS011;54576;52.020;5.536;2023-02-28T02:47:08;6.57;;;2.92;;
67776;SDS011;54576;52.020;5.536;2023-02-28T02:49:37;9.48;;;4.07;;
67776;SDS011;54576;52.020;5.536;2023-02-28T02:52:06;9.07;;;3.90;;
67776;SDS011;54576;52.020;5.536;2023-02-28T02:54:36;6.90;;;3.40;;
67776;SDS011;54576;52.020;5.536;2023-02-28T02:59:37;5.30;;;3.15;;
67776;SDS011;54576;52.020;5.536;2023-02-28T03:02:06;3.00;;;2.58;;
67776;SDS011;54576;52.020;5.536;2023-02-28T03:04:43;6.72;;;3.17;;
67776;SDS011;54576;52.020;5.536;2023-02-28T03:07:16;4.53;;;2.90;;
67776;SDS011;54576;52.020;5.536;2023-02-28T03:09:49;10.67;;;3.83;;
67776;SDS011;54576;52.020;5.536;2023-02-28T03:12:17;5.93;;;3.38;;
67776;SDS011;54576;52.020;5.536;2023-02-28T03:14:53;5.32;;;3.30;;
67776;SDS011;54576;52.020;5.536;2023-02-28T03:23:17;8.80;;;3.17;;
67776;SDS011;54576;52.020;5.536;2023-02-28T03:25:52;6.53;;;3.30;;
67776;SDS011;54576;52.020;5.536;2023-02-28T03:28:31;8.43;;;3.78;;
67776;SDS011;54576;52.020;5.536;2023-02-28T03:31:21;4.88;;;3.30;;
67776;SDS011;54576;52.020;5.536;2023-02-28T03:34:03;7.53;;;3.67;;
67776;SDS011;54576;52.020;5.536;2023-02-28T03:36:48;10.18;;;3.63;;
67776;SDS011;54576;52.020;5.536;2023-02-28T03:39:23;7.82;;;3.45;;
67776;SDS011;54576;52.020;5.536;2023-02-28T03:42:09;6.40;;;3.78;;
67776;SDS011;54576;52.020;5.536;2023-02-28T03:44:43;9.13;;;4.72;;
67776;SDS011;54576;52.020;5.536;2023-02-28T03:47:17;9.73;;;4.85;;
67776;SDS011;54576;52.020;5.536;2023-02-28T03:49:54;13.27;;;5.72;;
67776;SDS011;54576;52.020;5.536;2023-02-28T03:52:27;9.18;;;4.07;;
67776;SDS011;54576;52.020;5.536;2023-02-28T03:54:59;7.70;;;3.90;;
67776;SDS011;54576;52.020;5.536;2023-02-28T03:57:39;7.28;;;4.38;;
67776;SDS011;54576;52.020;5.536;2023-02-28T04:00:19;7.30;;;4.07;;
67776;SDS011;54576;52.020;5.536;2023-02-28T04:02:50;5.78;;;3.38;;
67776;SDS011;54576;52.020;5.536;2023-02-28T04:05:17;7.25;;;3.28;;
67776;SDS011;54576;52.020;5.536;2023-02-28T04:07:44;8.05;;;3.15;;
67776;SDS011;54576;52.020;5.536;2023-02-28T04:10:11;4.45;;;2.80;;
67776;SDS011;54576;52.020;5.536;2023-02-28T04:12:37;4.78;;;2.50;;
67776;SDS011;54576;52.020;5.536;2023-02-28T04:15:03;8.55;;;2.85;;
67776;SDS011;54576;52.020;5.536;2023-02-28T04:17:30;7.07;;;2.63;;
67776;SDS011;54576;52.020;5.536;2023-02-28T04:19:56;3.47;;;2.80;;
67776;SDS011;54576;52.020;5.536;2023-02-28T04:22:22;6.97;;;3.10;;
67776;SDS011;54576;52.020;5.536;2023-02-28T04:24:51;4.87;;;2.80;;
67776;SDS011;54576;52.020;5.536;2023-02-28T04:27:18;5.15;;;2.75;;
67776;SDS011;54576;52.020;5.536;2023-02-28T04:29:44;3.97;;;2.85;;
67776;SDS011;54576;52.020;5.536;2023-02-28T04:32:10;6.72;;;3.30;;
67776;SDS011;54576;52.020;5.536;2023-02-28T04:34:36;7.07;;;2.75;;
67776;SDS011;54576;52.020;5.536;2023-02-28T04:37:01;9.20;;;3.00;;
67776;SDS011;54576;52.020;5.536;2023-02-28T04:39:28;5.35;;;2.78;;
67776;SDS011;54576;52.020;5.536;2023-02-28T04:41:54;4.18;;;2.63;;
67776;SDS011;54576;52.020;5.536;2023-02-28T04:44:21;5.72;;;2.70;;
67776;SDS011;54576;52.020;5.536;2023-02-28T04:46:48;1.90;;;1.80;;
67776;SDS011;54576;52.020;5.536;2023-02-28T04:49:15;3.75;;;2.35;;
67776;SDS011;54576;52.020;5.536;2023-02-28T04:51:41;2.53;;;2.13;;
67776;SDS011;54576;52.020;5.536;2023-02-28T04:54:07;3.15;;;1.77;;
67776;SDS011;54576;52.020;5.536;2023-02-28T04:56:33;4.22;;;2.42;;
67776;SDS011;54576;52.020;5.536;2023-02-28T04:58:58;5.75;;;2.20;;
67776;SDS011;54576;52.020;5.536;2023-02-28T05:01:33;9.20;;;2.30;;
67776;SDS011;54576;52.020;5.536;2023-02-28T05:04:01;2.22;;;1.67;;
67776;SDS011;54576;52.020;5.536;2023-02-28T05:06:29;7.65;;;2.03;;
67776;SDS011;54576;52.020;5.536;2023-02-28T05:08:57;2.70;;;1.90;;
67776;SDS011;54576;52.020;5.536;2023-02-28T05:11:25;4.30;;;2.05;;
67776;SDS011;54576;52.020;5.536;2023-02-28T05:13:53;2.92;;;1.80;;
67776;SDS011;54576;52.020;5.536;2023-02-28T05:16:20;3.22;;;1.90;;
67776;SDS011;54576;52.020;5.536;2023-02-28T05:18:47;2.13;;;2.03;;
67776;SDS011;54576;52.020;5.536;2023-02-28T05:23:58;2.55;;;1.80;;
67776;SDS011;54576;52.020;5.536;2023-02-28T05:26:26;6.88;;;1.73;;
67776;SDS011;54576;52.020;5.536;2023-02-28T05:28:52;2.35;;;1.77;;
67776;SDS011;54576;52.020;5.536;2023-02-28T05:31:18;4.05;;;2.25;;
67776;SDS011;54576;52.020;5.536;2023-02-28T05:33:44;3.63;;;2.20;;
67776;SDS011;54576;52.020;5.536;2023-02-28T05:36:10;1.98;;;1.88;;
67776;SDS011;54576;52.020;5.536;2023-02-28T05:38:35;5.10;;;2.42;;
67776;SDS011;54576;52.020;5.536;2023-02-28T05:41:04;3.90;;;2.25;;
67776;SDS011;54576;52.020;5.536;2023-02-28T05:43:31;3.13;;;2.35;;
67776;SDS011;54576;52.020;5.536;2023-02-28T05:45:57;2.67;;;2.10;;
67776;SDS011;54576;52.020;5.536;2023-02-28T05:48:22;4.85;;;2.53;;
67776;SDS011;54576;52.020;5.536;2023-02-28T05:50:48;2.47;;;2.00;;
67776;SDS011;54576;52.020;5.536;2023-02-28T05:53:13;5.00;;;2.03;;
67776;SDS011;54576;52.020;5.536;2023-02-28T05:55:39;2.42;;;2.20;;
67776;SDS011;54576;52.020;5.536;2023-02-28T05:58:06;4.05;;;2.03;;
67776;SDS011;54576;52.020;5.536;2023-02-28T06:00:31;2.17;;;1.85;;
67776;SDS011;54576;52.020;5.536;2023-02-28T06:02:57;4.95;;;2.28;;
67776;SDS011;54576;52.020;5.536;2023-02-28T06:05:26;2.28;;;1.98;;
67776;SDS011;54576;52.020;5.536;2023-02-28T06:07:52;2.85;;;2.30;;
67776;SDS011;54576;52.020;5.536;2023-02-28T06:10:18;2.63;;;2.08;;
67776;SDS011;54576;52.020;5.536;2023-02-28T06:12:44;2.83;;;2.25;;
67776;SDS011;54576;52.020;5.536;2023-02-28T06:15:11;2.55;;;2.25;;
67776;SDS011;54576;52.020;5.536;2023-02-28T06:17:38;2.90;;;2.22;;
67776;SDS011;54576;52.020;5.536;2023-02-28T06:20:04;3.15;;;2.55;;
67776;SDS011;54576;52.020;5.536;2023-02-28T06:22:31;3.65;;;2.65;;
67776;SDS011;54576;52.020;5.536;2023-02-28T06:24:56;4.05;;;2.30;;
67776;SDS011;54576;52.020;5.536;2023-02-28T06:27:24;5.50;;;2.35;;
67776;SDS011;54576;52.020;5.536;2023-02-28T06:29:53;5.15;;;2.55;;
67776;SDS011;54576;52.020;5.536;2023-02-28T06:32:20;2.83;;;2.30;;
67776;SDS011;54576;52.020;5.536;2023-02-28T06:34:46;2.75;;;2.38;;
67776;SDS011;54576;52.020;5.536;2023-02-28T06:37:12;5.47;;;2.38;;
67776;SDS011;54576;52.020;5.536;2023-02-28T06:39:37;5.13;;;2.85;;
67776;SDS011;54576;52.020;5.536;2023-02-28T06:42:04;4.65;;;2.58;;
67776;SDS011;54576;52.020;5.536;2023-02-28T06:44:29;2.75;;;2.45;;
67776;SDS011;54576;52.020;5.536;2023-02-28T06:47:00;8.48;;;2.53;;
67776;SDS011;54576;52.020;5.536;2023-02-28T06:49:28;2.90;;;2.42;;
67776;SDS011;54576;52.020;5.536;2023-02-28T06:51:55;3.97;;;2.70;;
67776;SDS011;54576;52.020;5.536;2023-02-28T06:54:20;8.23;;;3.03;;
67776;SDS011;54576;52.020;5.536;2023-02-28T06:56:47;4.22;;;2.40;;
67776;SDS011;54576;52.020;5.536;2023-02-28T06:59:13;6.55;;;2.80;;
67776;SDS011;54576;52.020;5.536;2023-02-28T07:01:39;4.68;;;2.63;;
67776;SDS011;54576;52.020;5.536;2023-02-28T07:04:05;5.25;;;2.80;;
67776;SDS011;54576;52.020;5.536;2023-02-28T07:06:31;4.70;;;2.35;;
67776;SDS011;54576;52.020;5.536;2023-02-28T07:09:00;4.60;;;2.80;;
67776;SDS011;54576;52.020;5.536;2023-02-28T07:11:27;3.93;;;2.70;;
67776;SDS011;54576;52.020;5.536;2023-02-28T07:13:53;9.85;;;2.70;;
67776;SDS011;54576;52.020;5.536;2023-02-28T07:16:20;6.07;;;3.00;;
67776;SDS011;54576;52.020;5.536;2023-02-28T07:18:47;7.40;;;2.55;;
67776;SDS011;54576;52.020;5.536;2023-02-28T07:21:13;11.40;;;3.45;;
67776;SDS011;54576;52.020;5.536;2023-02-28T07:23:42;7.50;;;2.45;;
67776;SDS011;54576;52.020;5.536;2023-02-28T07:26:10;4.63;;;2.42;;
67776;SDS011;54576;52.020;5.536;2023-02-28T07:28:39;3.42;;;2.40;;
67776;SDS011;54576;52.020;5.536;2023-02-28T07:31:09;5.07;;;2.63;;
67776;SDS011;54576;52.020;5.536;2023-02-28T07:33:35;17.38;;;7.10;;
67776;SDS011;54576;52.020;5.536;2023-02-28T07:36:04;6.50;;;2.92;;
67776;SDS011;54576;52.020;5.536;2023-02-28T07:38:36;3.20;;;2.90;;
67776;SDS011;54576;52.020;5.536;2023-02-28T07:41:02;9.02;;;2.83;;
67776;SDS011;54576;52.020;5.536;2023-02-28T07:43:31;8.10;;;2.92;;
67776;SDS011;54576;52.020;5.536;2023-02-28T07:46:04;7.07;;;2.97;;
67776;SDS011;54576;52.020;5.536;2023-02-28T07:48:34;4.72;;;3.20;;
67776;SDS011;54576;52.020;5.536;2023-02-28T07:51:00;7.78;;;3.20;;
67776;SDS011;54576;52.020;5.536;2023-02-28T07:53:27;6.50;;;3.30;;
67776;SDS011;54576;52.020;5.536;2023-02-28T07:55:57;3.35;;;3.05;;
67776;SDS011;54576;52.020;5.536;2023-02-28T07:58:23;13.60;;;3.35;;
67776;SDS011;54576;52.020;5.536;2023-02-28T08:00:49;10.65;;;2.83;;
67776;SDS011;54576;52.020;5.536;2023-02-28T08:03:16;6.07;;;3.00;;
67776;SDS011;54576;52.020;5.536;2023-02-28T08:05:43;4.28;;;2.75;;
67776;SDS011;54576;52.020;5.536;2023-02-28T08:08:08;7.82;;;3.83;;
67776;SDS011;54576;52.020;5.536;2023-02-28T08:10:34;6.95;;;3.05;;
67776;SDS011;54576;52.020;5.536;2023-02-28T08:13:01;2.83;;;2.55;;
67776;SDS011;54576;52.020;5.536;2023-02-28T08:15:27;6.32;;;2.20;;
67776;SDS011;54576;52.020;5.536;2023-02-28T08:17:52;6.03;;;2.75;;
67776;SDS011;54576;52.020;5.536;2023-02-28T08:20:18;6.45;;;2.50;;
67776;SDS011;54576;52.020;5.536;2023-02-28T08:22:44;4.95;;;2.63;;
67776;SDS011;54576;52.020;5.536;2023-02-28T08:25:09;4.60;;;2.55;;
67776;SDS011;54576;52.020;5.536;2023-02-28T08:27:35;8.13;;;2.55;;
67776;SDS011;54576;52.020;5.536;2023-02-28T08:30:01;7.63;;;2.28;;
67776;SDS011;54576;52.020;5.536;2023-02-28T08:32:28;2.55;;;2.05;;
67776;SDS011;54576;52.020;5.536;2023-02-28T08:34:53;3.33;;;2.08;;
67776;SDS011;54576;52.020;5.536;2023-02-28T08:37:19;3.88;;;2.40;;
67776;SDS011;54576;52.020;5.536;2023-02-28T08:39:45;2.42;;;1.95;;
67776;SDS011;54576;52.020;5.536;2023-02-28T08:42:10;3.25;;;2.05;;
67776;SDS011;54576;52.020;5.536;2023-02-28T08:44:36;2.28;;;1.88;;
67776;SDS011;54576;52.020;5.536;2023-02-28T08:47:02;3.80;;;1.95;;
67776;SDS011;54576;52.020;5.536;2023-02-28T08:49:27;2.35;;;2.08;;
67776;SDS011;54576;52.020;5.536;2023-02-28T08:51:53;2.00;;;1.77;;
67776;SDS011;54576;52.020;5.536;2023-02-28T08:54:20;2.88;;;1.98;;
67776;SDS011;54576;52.020;5.536;2023-02-28T08:56:46;3.40;;;1.70;;
67776;SDS011;54576;52.020;5.536;2023-02-28T08:59:12;5.63;;;1.60;;
67776;SDS011;54576;52.020;5.536;2023-02-28T09:01:38;1.55;;;1.45;;
67776;SDS011;54576;52.020;5.536;2023-02-28T09:04:04;3.65;;;1.50;;
67776;SDS011;54576;52.020;5.536;2023-02-28T09:06:32;3.58;;;1.77;;
67776;SDS011;54576;52.020;5.536;2023-02-28T09:08:57;1.25;;;1.08;;
67776;SDS011;54576;52.020;5.536;2023-02-28T09:11:24;1.77;;;1.30;;
67776;SDS011;54576;52.020;5.536;2023-02-28T09:13:50;1.85;;;1.27;;
67776;SDS011;54576;52.020;5.536;2023-02-28T09:16:16;4.10;;;1.20;;
67776;SDS011;54576;52.020;5.536;2023-02-28T09:18:43;1.70;;;1.60;;
67776;SDS011;54576;52.020;5.536;2023-02-28T09:21:10;2.90;;;1.40;;
67776;SDS011;54576;52.020;5.536;2023-02-28T09:23:38;3.72;;;1.63;;
67776;SDS011;54576;52.020;5.536;2023-02-28T09:26:05;2.63;;;1.60;;
67776;SDS011;54576;52.020;5.536;2023-02-28T09:28:30;3.65;;;1.30;;
67776;SDS011;54576;52.020;5.536;2023-02-28T09:30:56;1.98;;;1.35;;
67776;SDS011;54576;52.020;5.536;2023-02-28T09:33:23;4.32;;;1.55;;
67776;SDS011;54576;52.020;5.536;2023-02-28T09:35:53;1.55;;;1.45;;
67776;SDS011;54576;52.020;5.536;2023-02-28T09:38:25;3.47;;;2.03;;
67776;SDS011;54576;52.020;5.536;2023-02-28T09:40:53;1.88;;;1.10;;
67776;SDS011;54576;52.020;5.536;2023-02-28T09:43:23;3.40;;;1.25;;
67776;SDS011;54576;52.020;5.536;2023-02-28T09:45:54;3.30;;;1.08;;
67776;SDS011;54576;52.020;5.536;2023-02-28T09:48:25;1.63;;;1.00;;
67776;SDS011;54576;52.020;5.536;2023-02-28T09:51:04;2.03;;;1.15;;
67776;SDS011;54576;52.020;5.536;2023-02-28T09:53:39;5.80;;;1.10;;
67776;SDS011;54576;52.020;5.536;2023-02-28T09:58:45;1.30;;;1.20;;
67776;SDS011;54576;52.020;5.536;2023-02-28T10:07:02;1.55;;;0.95;;
67776;SDS011;54576;52.020;5.536;2023-02-28T10:09:42;1.65;;;1.10;;
67776;SDS011;54576;52.020;5.536;2023-02-28T10:12:10;2.08;;;0.90;;
67776;SDS011;54576;52.020;5.536;2023-02-28T10:14:37;1.70;;;1.25;;
67776;SDS011;54576;52.020;5.536;2023-02-28T10:17:11;2.35;;;1.05;;
67776;SDS011;54576;52.020;5.536;2023-02-28T10:19:47;1.25;;;1.13;;
67776;SDS011;54576;52.020;5.536;2023-02-28T10:22:47;1.98;;;1.40;;
67776;SDS011;54576;52.020;5.536;2023-02-28T10:25:23;1.70;;;1.27;;
67776;SDS011;54576;52.020;5.536;2023-02-28T10:30:39;1.30;;;1.20;;
67776;SDS011;54576;52.020;5.536;2023-02-28T10:33:14;2.65;;;1.20;;
67776;SDS011;54576;52.020;5.536;2023-02-28T10:35:53;1.73;;;0.98;;
67776;SDS011;54576;52.020;5.536;2023-02-28T10:38:41;2.17;;;1.45;;
67776;SDS011;54576;52.020;5.536;2023-02-28T10:41:10;2.17;;;1.33;;
67776;SDS011;54576;52.020;5.536;2023-02-28T10:43:38;10.10;;;2.22;;
67776;SDS011;54576;52.020;5.536;2023-02-28T10:48:41;1.15;;;1.05;;
67776;SDS011;54576;52.020;5.536;2023-02-28T10:51:14;7.70;;;1.30;;
67776;SDS011;54576;52.020;5.536;2023-02-28T10:53:45;3.10;;;1.30;;
67776;SDS011;54576;52.020;5.536;2023-02-28T10:58:46;1.58;;;1.17;;
67776;SDS011;54576;52.020;5.536;2023-02-28T11:03:55;7.45;;;1.40;;
67776;SDS011;54576;52.020;5.536;2023-02-28T11:06:23;2.58;;;1.38;;
67776;SDS011;54576;52.020;5.536;2023-02-28T11:09:00;1.80;;;1.35;;
67776;SDS011;54576;52.020;5.536;2023-02-28T11:11:42;1.40;;;1.30;;
67776;SDS011;54576;52.020;5.536;2023-02-28T11:14:18;1.52;;;1.40;;
67776;SDS011;54576;52.020;5.536;2023-02-28T11:16:44;2.83;;;1.38;;
67776;SDS011;54576;52.020;5.536;2023-02-28T11:19:16;9.52;;;1.40;;
67776;SDS011;54576;52.020;5.536;2023-02-28T11:21:57;1.52;;;1.42;;
67776;SDS011;54576;52.020;5.536;2023-02-28T11:24:35;1.92;;;1.45;;
67776;SDS011;54576;52.020;5.536;2023-02-28T11:27:17;3.00;;;2.00;;
67776;SDS011;54576;52.020;5.536;2023-02-28T11:29:50;1.58;;;1.13;;
67776;SDS011;54576;52.020;5.536;2023-02-28T11:35:14;6.40;;;1.30;;
67776;SDS011;54576;52.020;5.536;2023-02-28T11:37:47;1.83;;;1.27;;
67776;SDS011;54576;52.020;5.536;2023-02-28T11:40:16;1.73;;;1.10;;
67776;SDS011;54576;52.020;5.536;2023-02-28T11:43:16;2.47;;;1.38;;
67776;SDS011;54576;52.020;5.536;2023-02-28T11:51:35;0.98;;;0.98;;
67776;SDS011;54576;52.020;5.536;2023-02-28T11:54:21;4.10;;;1.20;;
67776;SDS011;54576;52.020;5.536;2023-02-28T11:56:55;2.00;;;1.30;;
67776;SDS011;54576;52.020;5.536;2023-02-28T12:05:01;1.25;;;0.98;;
67776;SDS011;54576;52.020;5.536;2023-02-28T12:07:47;3.33;;;1.60;;
67776;SDS011;54576;52.020;5.536;2023-02-28T12:15:44;1.50;;;0.80;;
67776;SDS011;54576;52.020;5.536;2023-02-28T12:18:28;2.88;;;1.20;;
67776;SDS011;54576;52.020;5.536;2023-02-28T12:26:44;1.25;;;1.25;;
67776;SDS011;54576;52.020;5.536;2023-02-28T12:29:28;2.58;;;1.77;;
67776;SDS011;54576;52.020;5.536;2023-02-28T12:31:56;2.47;;;1.25;;
67776;SDS011;54576;52.020;5.536;2023-02-28T12:34:33;5.35;;;1.17;;
67776;SDS011;54576;52.020;5.536;2023-02-28T12:37:04;4.00;;;1.17;;
67776;SDS011;54576;52.020;5.536;2023-02-28T12:39:45;4.32;;;1.75;;
67776;SDS011;54576;52.020;5.536;2023-02-28T12:42:21;1.92;;;1.20;;
67776;SDS011;54576;52.020;5.536;2023-02-28T12:45:11;1.48;;;1.10;;
67776;SDS011;54576;52.020;5.536;2023-02-28T12:47:44;1.20;;;1.10;;
67776;SDS011;54576;52.020;5.536;2023-02-28T12:50:11;1.58;;;1.40;;
67776;SDS011;54576;52.020;5.536;2023-02-28T12:52:43;2.22;;;1.33;;
67776;SDS011;54576;52.020;5.536;2023-02-28T12:58:01;1.48;;;1.20;;
67776;SDS011;54576;52.020;5.536;2023-02-28T13:06:35;2.28;;;1.20;;
67776;SDS011;54576;52.020;5.536;2023-02-28T13:11:46;2.30;;;1.25;;
67776;SDS011;54576;52.020;5.536;2023-02-28T13:14:28;5.65;;;1.33;;
67776;SDS011;54576;52.020;5.536;2023-02-28T13:19:27;2.35;;;1.25;;
67776;SDS011;54576;52.020;5.536;2023-02-28T13:23:16;2.25;;;1.40;;
67776;SDS011;54576;52.020;5.536;2023-02-28T13:27:48;1.65;;;1.55;;
67776;SDS011;54576;52.020;5.536;2023-02-28T13:33:28;1.55;;;1.45;;
67776;SDS011;54576;52.020;5.536;2023-02-28T13:46:31;3.58;;;1.77;;
67776;SDS011;54576;52.020;5.536;2023-02-28T13:49:40;3.35;;;1.80;;
67776;SDS011;54576;52.020;5.536;2023-02-28T13:54:39;1.13;;;1.08;;
67776;SDS011;54576;52.020;5.536;2023-02-28T14:00:21;3.00;;;1.40;;
67776;SDS011;54576;52.020;5.536;2023-02-28T14:05:42;1.63;;;1.45;;
67776;SDS011;54576;52.020;5.536;2023-02-28T14:08:12;1.85;;;1.35;;
67776;SDS011;54576;52.020;5.536;2023-02-28T14:16:16;1.75;;;1.50;;
67776;SDS011;54576;52.020;5.536;2023-02-28T14:18:56;7.20;;;1.20;;
67776;SDS011;54576;52.020;5.536;2023-02-28T14:21:32;5.70;;;1.30;;
67776;SDS011;54576;52.020;5.536;2023-02-28T14:27:06;1.10;;;1.10;;
67776;SDS011;54576;52.020;5.536;2023-02-28T14:32:35;1.40;;;1.30;;
67776;SDS011;54576;52.020;5.536;2023-02-28T14:38:21;1.27;;;1.00;;
67776;SDS011;54576;52.020;5.536;2023-02-28T14:40:53;2.15;;;1.40;;
67776;SDS011;54576;52.020;5.536;2023-02-28T14:43:22;4.22;;;1.30;;
67776;SDS011;54576;52.020;5.536;2023-02-28T14:46:00;1.15;;;1.08;;
67776;SDS011;54576;52.020;5.536;2023-02-28T14:48:27;0.95;;;0.90;;
67776;SDS011;54576;52.020;5.536;2023-02-28T14:51:00;1.92;;;1.20;;
67776;SDS011;54576;52.020;5.536;2023-02-28T14:53:34;1.60;;;1.50;;
67776;SDS011;54576;52.020;5.536;2023-02-28T14:56:03;1.80;;;1.15;;
67776;SDS011;54576;52.020;5.536;2023-02-28T14:58:30;2.95;;;1.50;;
67776;SDS011;54576;52.020;5.536;2023-02-28T15:00:59;4.70;;;1.10;;
67776;SDS011;54576;52.020;5.536;2023-02-28T15:05:56;1.23;;;1.13;;
67776;SDS011;54576;52.020;5.536;2023-02-28T15:08:29;2.67;;;1.33;;
67776;SDS011;54576;52.020;5.536;2023-02-28T15:11:00;2.92;;;1.35;;
67776;SDS011;54576;52.020;5.536;2023-02-28T15:18:54;1.88;;;1.50;;
67776;SDS011;54576;52.020;5.536;2023-02-28T15:23:59;2.15;;;1.45;;
67776;SDS011;54576;52.020;5.536;2023-02-28T15:26:32;1.30;;;1.20;;
67776;SDS011;54576;52.020;5.536;2023-02-28T15:29:02;1.92;;;1.55;;
67776;SDS011;54576;52.020;5.536;2023-02-28T15:31:39;4.50;;;1.40;;
67776;SDS011;54576;52.020;5.536;2023-02-28T15:34:22;2.03;;;1.30;;
67776;SDS011;54576;52.020;5.536;2023-02-28T15:37:00;3.55;;;1.38;;
67776;SDS011;54576;52.020;5.536;2023-02-28T15:39:26;1.60;;;1.50;;
67776;SDS011;54576;52.020;5.536;2023-02-28T15:44:52;1.60;;;1.30;;
67776;SDS011;54576;52.020;5.536;2023-02-28T15:47:25;1.88;;;1.50;;
67776;SDS011;54576;52.020;5.536;2023-02-28T15:50:03;1.33;;;1.25;;
67776;SDS011;54576;52.020;5.536;2023-02-28T15:52:42;1.50;;;1.40;;
67776;SDS011;54576;52.020;5.536;2023-02-28T15:55:19;1.98;;;1.88;;
67776;SDS011;54576;52.020;5.536;2023-02-28T15:57:48;2.40;;;1.38;;
67776;SDS011;54576;52.020;5.536;2023-02-28T16:00:23;1.60;;;1.50;;
67776;SDS011;54576;52.020;5.536;2023-02-28T16:02:50;7.70;;;1.45;;
67776;SDS011;54576;52.020;5.536;2023-02-28T16:05:21;2.00;;;1.50;;
67776;SDS011;54576;52.020;5.536;2023-02-28T16:07:56;1.58;;;1.40;;
67776;SDS011;54576;52.020;5.536;2023-02-28T16:10:38;2.33;;;1.38;;
67776;SDS011;54576;52.020;5.536;2023-02-28T16:13:04;2.95;;;1.30;;
67776;SDS011;54576;52.020;5.536;2023-02-28T16:15:30;5.40;;;1.48;;
67776;SDS011;54576;52.020;5.536;2023-02-28T16:18:07;5.35;;;1.40;;
67776;SDS011;54576;52.020;5.536;2023-02-28T16:20:35;1.05;;;1.02;;
67776;SDS011;54576;52.020;5.536;2023-02-28T16:23:01;1.42;;;1.33;;
67776;SDS011;54576;52.020;5.536;2023-02-28T16:25:37;3.20;;;1.38;;
67776;SDS011;54576;52.020;5.536;2023-02-28T16:28:08;2.28;;;1.50;;
67776;SDS011;54576;52.020;5.536;2023-02-28T16:30:56;2.47;;;1.60;;
67776;SDS011;54576;52.020;5.536;2023-02-28T16:33:21;2.08;;;1.50;;
67776;SDS011;54576;52.020;5.536;2023-02-28T16:35:47;3.75;;;1.80;;
67776;SDS011;54576;52.020;5.536;2023-02-28T16:38:14;1.85;;;1.70;;
67776;SDS011;54576;52.020;5.536;2023-02-28T16:40:39;3.58;;;1.73;;
67776;SDS011;54576;52.020;5.536;2023-02-28T16:43:11;2.72;;;2.00;;
67776;SDS011;54576;52.020;5.536;2023-02-28T16:45:54;2.15;;;1.50;;
67776;SDS011;54576;52.020;5.536;2023-02-28T16:48:23;2.08;;;1.70;;
67776;SDS011;54576;52.020;5.536;2023-02-28T16:50:50;1.75;;;1.65;;
67776;SDS011;54576;52.020;5.536;2023-02-28T16:53:16;3.22;;;1.67;;
67776;SDS011;54576;52.020;5.536;2023-02-28T16:55:41;2.03;;;1.58;;
67776;SDS011;54576;52.020;5.536;2023-02-28T16:58:10;1.95;;;1.83;;
67776;SDS011;54576;52.020;5.536;2023-02-28T17:00:40;1.75;;;1.60;;
67776;SDS011;54576;52.020;5.536;2023-02-28T17:03:09;1.50;;;1.40;;
67776;SDS011;54576;52.020;5.536;2023-02-28T17:05:57;5.18;;;1.90;;
67776;SDS011;54576;52.020;5.536;2023-02-28T17:08:22;2.17;;;1.98;;
67776;SDS011;54576;52.020;5.536;2023-02-28T17:10:48;2.10;;;1.50;;
67776;SDS011;54576;52.020;5.536;2023-02-28T17:13:13;6.68;;;1.80;;
67776;SDS011;54576;52.020;5.536;2023-02-28T17:15:39;1.67;;;1.52;;
67776;SDS011;54576;52.020;5.536;2023-02-28T17:18:06;2.83;;;1.85;;
67776;SDS011;54576;52.020;5.536;2023-02-28T17:20:33;3.95;;;2.10;;